sensor_id;sensor_type;location;lat;lon;timestamp;P1;durP1;ratioP1;P2;durP2;ratioP2
11998;SDS011;40817;51.520;9.954;2022-09-06T00:00:44;6.25;;;5.63;;
11998;SDS011;40817;51.520;9.954;2022-09-06T00:03:12;7.82;;;5.22;;
11998;SDS011;40817;51.520;9.954;2022-09-06T00:05:41;6.30;;;5.00;;
11998;SDS011;40817;51.520;9.954;2022-09-06T00:08:09;5.82;;;5.20;;
11998;SDS011;40817;51.520;9.954;2022-09-06T00:10:39;5.90;;;4.78;;
11998;SDS011;40817;51.520;9.954;2022-09-06T00:13:08;7.22;;;5.28;;
11998;SDS011;40817;51.520;9.954;2022-09-06T00:15:38;10.77;;;5.53;;
11998;SDS011;40817;51.520;9.954;2022-09-06T00:18:05;7.72;;;5.20;;
11998;SDS011;40817;51.520;9.954;2022-09-06T00:20:33;8.98;;;4.65;;
11998;SDS011;40817;51.520;9.954;2022-09-06T00:23:05;5.85;;;5.25;;
11998;SDS011;40817;51.520;9.954;2022-09-06T00:25:34;6.00;;;5.40;;
11998;SDS011;40817;51.520;9.954;2022-09-06T00:28:03;8.52;;;5.78;;
11998;SDS011;40817;51.520;9.954;2022-09-06T00:30:32;6.78;;;5.68;;
11998;SDS011;40817;51.520;9.954;2022-09-06T00:33:00;7.28;;;4.88;;
11998;SDS011;40817;51.520;9.954;2022-09-06T00:35:27;7.85;;;5.80;;
11998;SDS011;40817;51.520;9.954;2022-09-06T00:37:56;10.15;;;5.10;;
11998;SDS011;40817;51.520;9.954;2022-09-06T00:40:24;6.72;;;5.60;;
11998;SDS011;40817;51.520;9.954;2022-09-06T00:42:55;7.05;;;5.45;;
11998;SDS011;40817;51.520;9.954;2022-09-06T00:45:25;8.18;;;5.20;;
11998;SDS011;40817;51.520;9.954;2022-09-06T00:47:55;7.22;;;5.30;;
11998;SDS011;40817;51.520;9.954;2022-09-06T00:50:24;8.90;;;6.10;;
11998;SDS011;40817;51.520;9.954;2022-09-06T00:52:53;7.63;;;6.20;;
11998;SDS011;40817;51.520;9.954;2022-09-06T00:55:21;7.05;;;5.03;;
11998;SDS011;40817;51.520;9.954;2022-09-06T00:57:50;9.25;;;6.13;;
11998;SDS011;40817;51.520;9.954;2022-09-06T01:00:20;6.90;;;5.90;;
11998;SDS011;40817;51.520;9.954;2022-09-06T01:02:49;7.47;;;6.13;;
11998;SDS011;40817;51.520;9.954;2022-09-06T01:05:16;8.43;;;5.88;;
11998;SDS011;40817;51.520;9.954;2022-09-06T01:07:53;9.35;;;6.03;;
11998;SDS011;40817;51.520;9.954;2022-09-06T01:10:43;7.18;;;6.15;;
11998;SDS011;40817;51.520;9.954;2022-09-06T01:13:31;8.73;;;6.38;;
11998;SDS011;40817;51.520;9.954;2022-09-06T01:16:16;6.68;;;5.97;;
11998;SDS011;40817;51.520;9.954;2022-09-06T01:19:18;6.43;;;5.72;;
11998;SDS011;40817;51.520;9.954;2022-09-06T01:22:52;7.40;;;6.22;;
11998;SDS011;40817;51.520;9.954;2022-09-06T01:26:11;7.10;;;6.28;;
11998;SDS011;40817;51.520;9.954;2022-09-06T01:29:22;8.23;;;6.88;;
11998;SDS011;40817;51.520;9.954;2022-09-06T01:32:00;7.72;;;6.55;;
11998;SDS011;40817;51.520;9.954;2022-09-06T01:34:38;9.13;;;6.80;;
11998;SDS011;40817;51.520;9.954;2022-09-06T01:37:13;7.40;;;6.68;;
11998;SDS011;40817;51.520;9.954;2022-09-06T01:39:46;8.60;;;6.95;;
11998;SDS011;40817;51.520;9.954;2022-09-06T01:42:14;7.78;;;6.97;;
11998;SDS011;40817;51.520;9.954;2022-09-06T01:44:51;7.88;;;6.15;;
11998;SDS011;40817;51.520;9.954;2022-09-06T01:47:28;10.07;;;7.20;;
11998;SDS011;40817;51.520;9.954;2022-09-06T01:50:17;10.30;;;6.95;;
11998;SDS011;40817;51.520;9.954;2022-09-06T01:53:31;7.78;;;6.95;;
11998;SDS011;40817;51.520;9.954;2022-09-06T01:56:30;8.70;;;7.10;;
11998;SDS011;40817;51.520;9.954;2022-09-06T01:59:22;9.45;;;6.82;;
11998;SDS011;40817;51.520;9.954;2022-09-06T02:02:35;10.20;;;7.25;;
11998;SDS011;40817;51.520;9.954;2022-09-06T02:05:17;7.03;;;6.18;;
11998;SDS011;40817;51.520;9.954;2022-09-06T02:07:54;7.70;;;6.90;;
11998;SDS011;40817;51.520;9.954;2022-09-06T02:10:28;7.25;;;6.53;;
11998;SDS011;40817;51.520;9.954;2022-09-06T02:13:03;9.25;;;6.68;;
11998;SDS011;40817;51.520;9.954;2022-09-06T02:15:36;8.88;;;7.18;;
11998;SDS011;40817;51.520;9.954;2022-09-06T02:18:10;7.88;;;7.07;;
11998;SDS011;40817;51.520;9.954;2022-09-06T02:20:44;9.88;;;6.65;;
11998;SDS011;40817;51.520;9.954;2022-09-06T02:23:16;9.88;;;6.70;;
11998;SDS011;40817;51.520;9.954;2022-09-06T02:25:48;8.35;;;7.43;;
11998;SDS011;40817;51.520;9.954;2022-09-06T02:28:21;7.72;;;6.88;;
11998;SDS011;40817;51.520;9.954;2022-09-06T02:30:52;8.32;;;7.32;;
11998;SDS011;40817;51.520;9.954;2022-09-06T02:33:27;9.77;;;6.93;;
11998;SDS011;40817;51.520;9.954;2022-09-06T02:36:02;11.05;;;7.55;;
11998;SDS011;40817;51.520;9.954;2022-09-06T02:38:34;7.50;;;6.65;;
11998;SDS011;40817;51.520;9.954;2022-09-06T02:41:05;8.00;;;6.43;;
11998;SDS011;40817;51.520;9.954;2022-09-06T02:43:33;9.80;;;7.40;;
11998;SDS011;40817;51.520;9.954;2022-09-06T02:46:02;8.35;;;7.00;;
11998;SDS011;40817;51.520;9.954;2022-09-06T02:48:30;8.50;;;7.10;;
11998;SDS011;40817;51.520;9.954;2022-09-06T02:51:00;7.38;;;6.38;;
11998;SDS011;40817;51.520;9.954;2022-09-06T02:53:29;8.55;;;7.10;;
11998;SDS011;40817;51.520;9.954;2022-09-06T02:55:57;8.20;;;7.00;;
11998;SDS011;40817;51.520;9.954;2022-09-06T02:58:25;9.30;;;7.45;;
11998;SDS011;40817;51.520;9.954;2022-09-06T03:00:53;8.25;;;7.35;;
11998;SDS011;40817;51.520;9.954;2022-09-06T03:03:42;9.32;;;7.40;;
11998;SDS011;40817;51.520;9.954;2022-09-06T03:06:10;8.43;;;6.93;;
11998;SDS011;40817;51.520;9.954;2022-09-06T03:08:38;8.88;;;7.10;;
11998;SDS011;40817;51.520;9.954;2022-09-06T03:11:06;8.73;;;7.05;;
11998;SDS011;40817;51.520;9.954;2022-09-06T03:13:34;9.80;;;7.18;;
11998;SDS011;40817;51.520;9.954;2022-09-06T03:16:01;7.70;;;6.95;;
11998;SDS011;40817;51.520;9.954;2022-09-06T03:18:30;7.55;;;6.80;;
11998;SDS011;40817;51.520;9.954;2022-09-06T03:20:59;10.48;;;7.63;;
11998;SDS011;40817;51.520;9.954;2022-09-06T03:23:27;13.30;;;7.18;;
11998;SDS011;40817;51.520;9.954;2022-09-06T03:25:56;10.52;;;7.95;;
11998;SDS011;40817;51.520;9.954;2022-09-06T03:28:23;8.80;;;7.88;;
11998;SDS011;40817;51.520;9.954;2022-09-06T03:30:52;8.80;;;7.47;;
11998;SDS011;40817;51.520;9.954;2022-09-06T03:33:19;9.00;;;7.47;;
11998;SDS011;40817;51.520;9.954;2022-09-06T03:35:49;11.90;;;7.93;;
11998;SDS011;40817;51.520;9.954;2022-09-06T03:38:21;10.90;;;8.13;;
11998;SDS011;40817;51.520;9.954;2022-09-06T03:40:50;9.05;;;7.40;;
11998;SDS011;40817;51.520;9.954;2022-09-06T03:43:19;8.77;;;7.78;;
11998;SDS011;40817;51.520;9.954;2022-09-06T03:45:49;8.27;;;7.47;;
11998;SDS011;40817;51.520;9.954;2022-09-06T03:48:19;8.30;;;7.50;;
11998;SDS011;40817;51.520;9.954;2022-09-06T03:50:50;9.80;;;7.50;;
11998;SDS011;40817;51.520;9.954;2022-09-06T03:53:21;9.50;;;7.95;;
11998;SDS011;40817;51.520;9.954;2022-09-06T03:55:52;10.30;;;7.53;;
11998;SDS011;40817;51.520;9.954;2022-09-06T03:58:22;8.32;;;7.20;;
11998;SDS011;40817;51.520;9.954;2022-09-06T04:01:01;9.65;;;6.53;;
11998;SDS011;40817;51.520;9.954;2022-09-06T04:03:32;10.23;;;7.07;;
11998;SDS011;40817;51.520;9.954;2022-09-06T04:06:01;8.07;;;6.95;;
11998;SDS011;40817;51.520;9.954;2022-09-06T04:08:32;9.20;;;6.72;;
11998;SDS011;40817;51.520;9.954;2022-09-06T04:11:01;8.80;;;6.80;;
11998;SDS011;40817;51.520;9.954;2022-09-06T04:13:29;7.05;;;5.95;;
11998;SDS011;40817;51.520;9.954;2022-09-06T04:15:58;7.32;;;6.55;;
11998;SDS011;40817;51.520;9.954;2022-09-06T04:18:27;7.65;;;5.82;;
11998;SDS011;40817;51.520;9.954;2022-09-06T04:20:55;7.57;;;6.43;;
11998;SDS011;40817;51.520;9.954;2022-09-06T04:23:23;6.40;;;5.80;;
11998;SDS011;40817;51.520;9.954;2022-09-06T04:25:55;6.32;;;5.60;;
11998;SDS011;40817;51.520;9.954;2022-09-06T04:28:24;7.18;;;5.65;;
11998;SDS011;40817;51.520;9.954;2022-09-06T04:30:53;7.80;;;5.68;;
11998;SDS011;40817;51.520;9.954;2022-09-06T04:33:24;6.32;;;5.63;;
11998;SDS011;40817;51.520;9.954;2022-09-06T04:35:52;7.22;;;5.47;;
11998;SDS011;40817;51.520;9.954;2022-09-06T04:38:22;5.82;;;5.03;;
11998;SDS011;40817;51.520;9.954;2022-09-06T04:40:54;7.13;;;5.50;;
11998;SDS011;40817;51.520;9.954;2022-09-06T04:43:22;6.32;;;5.65;;
11998;SDS011;40817;51.520;9.954;2022-09-06T04:45:50;6.60;;;5.20;;
11998;SDS011;40817;51.520;9.954;2022-09-06T04:48:21;5.85;;;5.13;;
11998;SDS011;40817;51.520;9.954;2022-09-06T04:50:49;6.57;;;5.32;;
11998;SDS011;40817;51.520;9.954;2022-09-06T04:53:17;6.38;;;5.35;;
11998;SDS011;40817;51.520;9.954;2022-09-06T04:55:44;6.25;;;5.47;;
11998;SDS011;40817;51.520;9.954;2022-09-06T04:58:13;6.25;;;5.60;;
11998;SDS011;40817;51.520;9.954;2022-09-06T05:00:41;9.23;;;5.88;;
11998;SDS011;40817;51.520;9.954;2022-09-06T05:03:09;8.23;;;6.18;;
11998;SDS011;40817;51.520;9.954;2022-09-06T05:05:36;6.93;;;5.40;;
11998;SDS011;40817;51.520;9.954;2022-09-06T05:08:04;8.32;;;5.53;;
11998;SDS011;40817;51.520;9.954;2022-09-06T05:10:32;10.35;;;5.53;;
11998;SDS011;40817;51.520;9.954;2022-09-06T05:12:59;6.82;;;4.93;;
11998;SDS011;40817;51.520;9.954;2022-09-06T05:15:28;8.57;;;5.13;;
11998;SDS011;40817;51.520;9.954;2022-09-06T05:18:00;8.32;;;5.72;;
11998;SDS011;40817;51.520;9.954;2022-09-06T05:20:29;9.10;;;5.20;;
11998;SDS011;40817;51.520;9.954;2022-09-06T05:22:57;7.40;;;5.70;;
11998;SDS011;40817;51.520;9.954;2022-09-06T05:25:24;7.28;;;5.88;;
11998;SDS011;40817;51.520;9.954;2022-09-06T05:27:52;14.10;;;6.00;;
11998;SDS011;40817;51.520;9.954;2022-09-06T05:30:20;14.38;;;5.70;;
11998;SDS011;40817;51.520;9.954;2022-09-06T05:32:49;9.60;;;5.65;;
11998;SDS011;40817;51.520;9.954;2022-09-06T05:35:17;16.05;;;5.65;;
11998;SDS011;40817;51.520;9.954;2022-09-06T05:37:44;11.15;;;6.03;;
11998;SDS011;40817;51.520;9.954;2022-09-06T05:40:12;14.38;;;6.53;;
11998;SDS011;40817;51.520;9.954;2022-09-06T05:42:40;15.55;;;6.60;;
11998;SDS011;40817;51.520;9.954;2022-09-06T05:45:08;15.38;;;6.40;;
11998;SDS011;40817;51.520;9.954;2022-09-06T05:47:36;14.55;;;7.35;;
11998;SDS011;40817;51.520;9.954;2022-09-06T05:50:05;12.48;;;6.20;;
11998;SDS011;40817;51.520;9.954;2022-09-06T05:52:34;10.18;;;6.97;;
11998;SDS011;40817;51.520;9.954;2022-09-06T05:55:02;8.95;;;6.88;;
11998;SDS011;40817;51.520;9.954;2022-09-06T05:57:32;10.32;;;6.65;;
11998;SDS011;40817;51.520;9.954;2022-09-06T06:00:01;7.38;;;5.97;;
11998;SDS011;40817;51.520;9.954;2022-09-06T06:02:30;8.60;;;6.85;;
11998;SDS011;40817;51.520;9.954;2022-09-06T06:04:58;9.27;;;6.53;;
11998;SDS011;40817;51.520;9.954;2022-09-06T06:07:27;10.27;;;6.00;;
11998;SDS011;40817;51.520;9.954;2022-09-06T06:09:55;8.77;;;6.20;;
11998;SDS011;40817;51.520;9.954;2022-09-06T06:12:22;8.52;;;6.82;;
11998;SDS011;40817;51.520;9.954;2022-09-06T06:14:50;10.18;;;6.00;;
11998;SDS011;40817;51.520;9.954;2022-09-06T06:17:18;9.93;;;5.82;;
11998;SDS011;40817;51.520;9.954;2022-09-06T06:19:46;10.85;;;6.40;;
11998;SDS011;40817;51.520;9.954;2022-09-06T06:22:13;9.35;;;5.47;;
11998;SDS011;40817;51.520;9.954;2022-09-06T06:24:44;6.95;;;5.20;;
11998;SDS011;40817;51.520;9.954;2022-09-06T06:27:11;11.40;;;5.65;;
11998;SDS011;40817;51.520;9.954;2022-09-06T06:29:38;5.85;;;4.90;;
11998;SDS011;40817;51.520;9.954;2022-09-06T06:32:06;9.43;;;5.82;;
11998;SDS011;40817;51.520;9.954;2022-09-06T06:34:34;8.57;;;5.85;;
11998;SDS011;40817;51.520;9.954;2022-09-06T06:37:01;8.02;;;5.43;;
11998;SDS011;40817;51.520;9.954;2022-09-06T06:39:29;6.00;;;5.40;;
11998;SDS011;40817;51.520;9.954;2022-09-06T06:41:59;5.88;;;5.28;;
11998;SDS011;40817;51.520;9.954;2022-09-06T06:44:26;8.48;;;5.63;;
11998;SDS011;40817;51.520;9.954;2022-09-06T06:46:54;7.57;;;5.20;;
11998;SDS011;40817;51.520;9.954;2022-09-06T06:49:22;6.05;;;4.80;;
11998;SDS011;40817;51.520;9.954;2022-09-06T06:51:50;7.47;;;4.70;;
11998;SDS011;40817;51.520;9.954;2022-09-06T06:54:18;6.10;;;4.72;;
11998;SDS011;40817;51.520;9.954;2022-09-06T06:56:45;8.48;;;5.07;;
11998;SDS011;40817;51.520;9.954;2022-09-06T06:59:14;5.30;;;4.50;;
11998;SDS011;40817;51.520;9.954;2022-09-06T07:01:42;8.55;;;5.15;;
11998;SDS011;40817;51.520;9.954;2022-09-06T07:04:10;5.85;;;4.90;;
11998;SDS011;40817;51.520;9.954;2022-09-06T07:06:45;6.72;;;4.30;;
11998;SDS011;40817;51.520;9.954;2022-09-06T07:09:16;6.07;;;5.25;;
11998;SDS011;40817;51.520;9.954;2022-09-06T07:11:46;7.45;;;4.38;;
11998;SDS011;40817;51.520;9.954;2022-09-06T07:14:16;5.68;;;4.43;;
11998;SDS011;40817;51.520;9.954;2022-09-06T07:16:44;6.00;;;4.93;;
11998;SDS011;40817;51.520;9.954;2022-09-06T07:19:12;5.93;;;4.55;;
11998;SDS011;40817;51.520;9.954;2022-09-06T07:21:39;6.60;;;4.82;;
11998;SDS011;40817;51.520;9.954;2022-09-06T07:24:07;6.95;;;4.63;;
11998;SDS011;40817;51.520;9.954;2022-09-06T07:26:35;5.78;;;5.00;;
11998;SDS011;40817;51.520;9.954;2022-09-06T07:29:04;5.22;;;4.70;;
11998;SDS011;40817;51.520;9.954;2022-09-06T07:31:34;5.90;;;4.97;;
11998;SDS011;40817;51.520;9.954;2022-09-06T07:34:04;6.20;;;5.28;;
11998;SDS011;40817;51.520;9.954;2022-09-06T07:36:31;6.35;;;5.40;;
11998;SDS011;40817;51.520;9.954;2022-09-06T07:38:59;6.85;;;4.70;;
11998;SDS011;40817;51.520;9.954;2022-09-06T07:41:27;6.90;;;5.10;;
11998;SDS011;40817;51.520;9.954;2022-09-06T07:43:55;7.30;;;5.18;;
11998;SDS011;40817;51.520;9.954;2022-09-06T07:46:22;6.45;;;5.00;;
11998;SDS011;40817;51.520;9.954;2022-09-06T07:48:52;6.20;;;4.88;;
11998;SDS011;40817;51.520;9.954;2022-09-06T07:51:20;8.35;;;5.18;;
11998;SDS011;40817;51.520;9.954;2022-09-06T07:53:48;7.57;;;4.95;;
11998;SDS011;40817;51.520;9.954;2022-09-06T07:56:20;5.93;;;4.70;;
11998;SDS011;40817;51.520;9.954;2022-09-06T07:58:48;6.72;;;5.20;;
11998;SDS011;40817;51.520;9.954;2022-09-06T08:01:27;8.77;;;5.32;;
11998;SDS011;40817;51.520;9.954;2022-09-06T08:03:58;6.75;;;5.00;;
11998;SDS011;40817;51.520;9.954;2022-09-06T08:06:29;8.50;;;5.40;;
11998;SDS011;40817;51.520;9.954;2022-09-06T08:09:00;5.10;;;4.60;;
11998;SDS011;40817;51.520;9.954;2022-09-06T08:11:29;5.85;;;4.45;;
11998;SDS011;40817;51.520;9.954;2022-09-06T08:13:59;5.88;;;4.85;;
11998;SDS011;40817;51.520;9.954;2022-09-06T08:16:29;5.25;;;4.60;;
11998;SDS011;40817;51.520;9.954;2022-09-06T08:19:01;5.15;;;4.57;;
11998;SDS011;40817;51.520;9.954;2022-09-06T08:21:33;5.15;;;4.55;;
11998;SDS011;40817;51.520;9.954;2022-09-06T08:24:01;5.13;;;4.60;;
11998;SDS011;40817;51.520;9.954;2022-09-06T08:26:32;5.22;;;4.72;;
11998;SDS011;40817;51.520;9.954;2022-09-06T08:29:04;6.07;;;4.80;;
11998;SDS011;40817;51.520;9.954;2022-09-06T08:31:34;8.18;;;4.57;;
11998;SDS011;40817;51.520;9.954;2022-09-06T08:34:06;7.43;;;4.82;;
11998;SDS011;40817;51.520;9.954;2022-09-06T08:36:34;8.07;;;4.80;;
11998;SDS011;40817;51.520;9.954;2022-09-06T08:39:03;5.03;;;4.32;;
11998;SDS011;40817;51.520;9.954;2022-09-06T08:41:36;6.10;;;4.30;;
11998;SDS011;40817;51.520;9.954;2022-09-06T08:44:17;8.02;;;4.63;;
11998;SDS011;40817;51.520;9.954;2022-09-06T08:46:52;5.55;;;5.03;;
11998;SDS011;40817;51.520;9.954;2022-09-06T08:49:30;10.57;;;5.05;;
11998;SDS011;40817;51.520;9.954;2022-09-06T08:55:29;6.22;;;5.20;;
11998;SDS011;40817;51.520;9.954;2022-09-06T08:58:16;6.32;;;4.70;;
11998;SDS011;40817;51.520;9.954;2022-09-06T09:01:00;5.05;;;4.55;;
11998;SDS011;40817;51.520;9.954;2022-09-06T09:03:34;7.82;;;5.63;;
11998;SDS011;40817;51.520;9.954;2022-09-06T09:06:06;9.00;;;5.03;;
11998;SDS011;40817;51.520;9.954;2022-09-06T09:08:38;4.97;;;4.43;;
11998;SDS011;40817;51.520;9.954;2022-09-06T09:11:14;6.28;;;4.50;;
11998;SDS011;40817;51.520;9.954;2022-09-06T09:13:50;5.70;;;5.00;;
11998;SDS011;40817;51.520;9.954;2022-09-06T09:16:23;7.25;;;4.47;;
11998;SDS011;40817;51.520;9.954;2022-09-06T09:18:52;5.18;;;4.47;;
11998;SDS011;40817;51.520;9.954;2022-09-06T09:21:26;5.80;;;4.57;;
11998;SDS011;40817;51.520;9.954;2022-09-06T09:23:57;5.70;;;4.80;;
11998;SDS011;40817;51.520;9.954;2022-09-06T09:26:31;5.63;;;5.03;;
11998;SDS011;40817;51.520;9.954;2022-09-06T09:29:10;6.78;;;5.32;;
11998;SDS011;40817;51.520;9.954;2022-09-06T09:31:40;7.15;;;5.00;;
11998;SDS011;40817;51.520;9.954;2022-09-06T09:34:13;6.35;;;4.90;;
11998;SDS011;40817;51.520;9.954;2022-09-06T09:37:12;6.75;;;5.35;;
11998;SDS011;40817;51.520;9.954;2022-09-06T09:39:45;7.78;;;5.00;;
11998;SDS011;40817;51.520;9.954;2022-09-06T09:42:22;7.22;;;4.88;;
11998;SDS011;40817;51.520;9.954;2022-09-06T09:44:56;5.93;;;4.90;;
11998;SDS011;40817;51.520;9.954;2022-09-06T09:47:26;10.98;;;4.43;;
11998;SDS011;40817;51.520;9.954;2022-09-06T09:49:56;9.80;;;4.65;;
11998;SDS011;40817;51.520;9.954;2022-09-06T09:52:27;6.60;;;5.18;;
11998;SDS011;40817;51.520;9.954;2022-09-06T09:54:59;6.88;;;4.45;;
11998;SDS011;40817;51.520;9.954;2022-09-06T09:57:30;7.45;;;4.90;;
11998;SDS011;40817;51.520;9.954;2022-09-06T10:00:17;7.57;;;4.82;;
11998;SDS011;40817;51.520;9.954;2022-09-06T10:03:10;6.50;;;4.30;;
11998;SDS011;40817;51.520;9.954;2022-09-06T10:05:40;4.53;;;4.10;;
11998;SDS011;40817;51.520;9.954;2022-09-06T10:08:22;8.52;;;4.15;;
11998;SDS011;40817;51.520;9.954;2022-09-06T10:10:51;6.10;;;4.00;;
11998;SDS011;40817;51.520;9.954;2022-09-06T10:13:20;8.40;;;4.47;;
11998;SDS011;40817;51.520;9.954;2022-09-06T10:15:51;8.43;;;4.95;;
11998;SDS011;40817;51.520;9.954;2022-09-06T10:18:27;5.93;;;4.38;;
11998;SDS011;40817;51.520;9.954;2022-09-06T10:20:58;6.90;;;3.95;;
11998;SDS011;40817;51.520;9.954;2022-09-06T10:23:32;5.85;;;4.30;;
11998;SDS011;40817;51.520;9.954;2022-09-06T10:26:28;5.80;;;4.38;;
11998;SDS011;40817;51.520;9.954;2022-09-06T10:29:04;7.20;;;4.25;;
11998;SDS011;40817;51.520;9.954;2022-09-06T10:34:44;6.35;;;4.70;;
11998;SDS011;40817;51.520;9.954;2022-09-06T10:37:44;6.30;;;3.90;;
11998;SDS011;40817;51.520;9.954;2022-09-06T10:40:39;5.05;;;3.97;;
11998;SDS011;40817;51.520;9.954;2022-09-06T10:43:20;6.68;;;4.75;;
11998;SDS011;40817;51.520;9.954;2022-09-06T10:45:53;6.57;;;3.65;;
11998;SDS011;40817;51.520;9.954;2022-09-06T10:48:26;4.47;;;3.90;;
11998;SDS011;40817;51.520;9.954;2022-09-06T10:51:03;9.05;;;4.47;;
11998;SDS011;40817;51.520;9.954;2022-09-06T10:53:44;8.23;;;4.50;;
11998;SDS011;40817;51.520;9.954;2022-09-06T10:56:19;9.23;;;4.38;;
11998;SDS011;40817;51.520;9.954;2022-09-06T10:58:56;8.98;;;4.07;;
11998;SDS011;40817;51.520;9.954;2022-09-06T11:01:30;7.97;;;3.58;;
11998;SDS011;40817;51.520;9.954;2022-09-06T11:04:07;5.25;;;3.38;;
11998;SDS011;40817;51.520;9.954;2022-09-06T11:06:44;5.55;;;3.17;;
11998;SDS011;40817;51.520;9.954;2022-09-06T11:09:22;4.95;;;3.03;;
11998;SDS011;40817;51.520;9.954;2022-09-06T11:12:02;6.80;;;2.95;;
11998;SDS011;40817;51.520;9.954;2022-09-06T11:14:38;5.15;;;3.25;;
11998;SDS011;40817;51.520;9.954;2022-09-06T11:17:07;4.72;;;3.53;;
11998;SDS011;40817;51.520;9.954;2022-09-06T11:19:45;7.55;;;3.45;;
11998;SDS011;40817;51.520;9.954;2022-09-06T11:22:27;4.07;;;3.20;;
11998;SDS011;40817;51.520;9.954;2022-09-06T11:25:30;6.07;;;3.30;;
11998;SDS011;40817;51.520;9.954;2022-09-06T11:28:34;3.85;;;3.20;;
11998;SDS011;40817;51.520;9.954;2022-09-06T11:31:08;5.88;;;3.42;;
11998;SDS011;40817;51.520;9.954;2022-09-06T11:33:40;4.18;;;3.55;;
11998;SDS011;40817;51.520;9.954;2022-09-06T11:36:16;6.38;;;3.35;;
11998;SDS011;40817;51.520;9.954;2022-09-06T11:41:26;5.60;;;3.47;;
11998;SDS011;40817;51.520;9.954;2022-09-06T11:43:59;5.65;;;3.45;;
11998;SDS011;40817;51.520;9.954;2022-09-06T11:49:37;5.53;;;3.05;;
11998;SDS011;40817;51.520;9.954;2022-09-06T11:55:32;4.70;;;3.20;;
11998;SDS011;40817;51.520;9.954;2022-09-06T11:58:06;4.90;;;3.67;;
11998;SDS011;40817;51.520;9.954;2022-09-06T12:04:07;8.02;;;3.25;;
11998;SDS011;40817;51.520;9.954;2022-09-06T12:06:37;4.38;;;3.25;;
11998;SDS011;40817;51.520;9.954;2022-09-06T12:09:30;6.68;;;3.10;;
11998;SDS011;40817;51.520;9.954;2022-09-06T12:12:01;5.03;;;3.33;;
11998;SDS011;40817;51.520;9.954;2022-09-06T12:14:31;4.70;;;2.97;;
11998;SDS011;40817;51.520;9.954;2022-09-06T12:23:40;4.68;;;3.15;;
11998;SDS011;40817;51.520;9.954;2022-09-06T12:26:09;6.10;;;3.08;;
11998;SDS011;40817;51.520;9.954;2022-09-06T12:28:39;3.20;;;2.50;;
11998;SDS011;40817;51.520;9.954;2022-09-06T12:31:24;4.28;;;2.50;;
11998;SDS011;40817;51.520;9.954;2022-09-06T12:34:20;3.88;;;2.50;;
11998;SDS011;40817;51.520;9.954;2022-09-06T12:36:54;4.00;;;2.50;;
11998;SDS011;40817;51.520;9.954;2022-09-06T12:39:24;6.60;;;2.78;;
11998;SDS011;40817;51.520;9.954;2022-09-06T12:41:54;4.85;;;2.35;;
11998;SDS011;40817;51.520;9.954;2022-09-06T12:44:28;4.18;;;2.45;;
11998;SDS011;40817;51.520;9.954;2022-09-06T12:47:09;4.60;;;2.78;;
11998;SDS011;40817;51.520;9.954;2022-09-06T12:49:43;3.40;;;2.35;;
11998;SDS011;40817;51.520;9.954;2022-09-06T12:52:12;7.70;;;2.60;;
11998;SDS011;40817;51.520;9.954;2022-09-06T12:54:45;5.20;;;2.88;;
11998;SDS011;40817;51.520;9.954;2022-09-06T12:57:17;3.47;;;2.80;;
11998;SDS011;40817;51.520;9.954;2022-09-06T12:59:49;3.72;;;2.40;;
11998;SDS011;40817;51.520;9.954;2022-09-06T13:02:21;6.47;;;3.05;;
11998;SDS011;40817;51.520;9.954;2022-09-06T13:05:02;6.18;;;3.17;;
11998;SDS011;40817;51.520;9.954;2022-09-06T13:07:34;4.57;;;2.72;;
11998;SDS011;40817;51.520;9.954;2022-09-06T13:10:06;3.45;;;2.17;;
11998;SDS011;40817;51.520;9.954;2022-09-06T13:12:35;5.40;;;2.72;;
11998;SDS011;40817;51.520;9.954;2022-09-06T13:15:10;4.30;;;2.55;;
11998;SDS011;40817;51.520;9.954;2022-09-06T13:17:45;5.18;;;2.80;;
11998;SDS011;40817;51.520;9.954;2022-09-06T13:20:20;5.90;;;2.50;;
11998;SDS011;40817;51.520;9.954;2022-09-06T13:23:04;6.50;;;3.33;;
11998;SDS011;40817;51.520;9.954;2022-09-06T13:25:44;6.13;;;3.05;;
11998;SDS011;40817;51.520;9.954;2022-09-06T13:28:22;5.82;;;2.80;;
11998;SDS011;40817;51.520;9.954;2022-09-06T13:33:53;4.25;;;2.78;;
11998;SDS011;40817;51.520;9.954;2022-09-06T13:36:25;2.70;;;2.45;;
11998;SDS011;40817;51.520;9.954;2022-09-06T13:38:56;5.65;;;2.78;;
11998;SDS011;40817;51.520;9.954;2022-09-06T13:41:31;5.22;;;3.10;;
11998;SDS011;40817;51.520;9.954;2022-09-06T13:44:16;4.85;;;2.30;;
11998;SDS011;40817;51.520;9.954;2022-09-06T13:46:54;4.22;;;2.60;;
11998;SDS011;40817;51.520;9.954;2022-09-06T13:49:22;3.22;;;2.25;;
11998;SDS011;40817;51.520;9.954;2022-09-06T13:51:53;4.18;;;2.38;;
11998;SDS011;40817;51.520;9.954;2022-09-06T13:54:24;3.38;;;1.90;;
11998;SDS011;40817;51.520;9.954;2022-09-06T13:56:53;4.50;;;2.10;;
11998;SDS011;40817;51.520;9.954;2022-09-06T13:59:21;4.18;;;2.33;;
11998;SDS011;40817;51.520;9.954;2022-09-06T14:01:53;3.15;;;2.17;;
11998;SDS011;40817;51.520;9.954;2022-09-06T14:04:27;5.88;;;2.40;;
11998;SDS011;40817;51.520;9.954;2022-09-06T14:06:57;3.03;;;2.33;;
11998;SDS011;40817;51.520;9.954;2022-09-06T14:09:25;4.20;;;2.33;;
11998;SDS011;40817;51.520;9.954;2022-09-06T14:11:53;5.82;;;2.40;;
11998;SDS011;40817;51.520;9.954;2022-09-06T14:14:21;4.75;;;2.17;;
11998;SDS011;40817;51.520;9.954;2022-09-06T14:16:50;5.50;;;2.30;;
11998;SDS011;40817;51.520;9.954;2022-09-06T14:19:18;5.03;;;2.38;;
11998;SDS011;40817;51.520;9.954;2022-09-06T14:21:46;3.28;;;2.28;;
11998;SDS011;40817;51.520;9.954;2022-09-06T14:24:16;4.00;;;2.40;;
11998;SDS011;40817;51.520;9.954;2022-09-06T14:26:43;5.57;;;2.28;;
11998;SDS011;40817;51.520;9.954;2022-09-06T14:29:11;5.88;;;2.30;;
11998;SDS011;40817;51.520;9.954;2022-09-06T14:31:39;3.33;;;2.20;;
11998;SDS011;40817;51.520;9.954;2022-09-06T14:34:06;3.63;;;2.15;;
11998;SDS011;40817;51.520;9.954;2022-09-06T14:36:34;3.75;;;2.20;;
11998;SDS011;40817;51.520;9.954;2022-09-06T14:39:02;3.58;;;2.28;;
11998;SDS011;40817;51.520;9.954;2022-09-06T14:41:32;5.78;;;2.10;;
11998;SDS011;40817;51.520;9.954;2022-09-06T14:44:00;4.55;;;2.70;;
11998;SDS011;40817;51.520;9.954;2022-09-06T14:46:29;5.05;;;2.35;;
11998;SDS011;40817;51.520;9.954;2022-09-06T14:48:58;5.45;;;2.25;;
11998;SDS011;40817;51.520;9.954;2022-09-06T14:51:28;3.80;;;2.40;;
11998;SDS011;40817;51.520;9.954;2022-09-06T14:53:57;3.92;;;2.25;;
11998;SDS011;40817;51.520;9.954;2022-09-06T14:56:31;3.95;;;2.05;;
11998;SDS011;40817;51.520;9.954;2022-09-06T14:58:59;2.70;;;2.22;;
11998;SDS011;40817;51.520;9.954;2022-09-06T15:01:27;3.97;;;2.10;;
11998;SDS011;40817;51.520;9.954;2022-09-06T15:03:58;4.80;;;2.60;;
11998;SDS011;40817;51.520;9.954;2022-09-06T15:06:29;7.85;;;2.35;;
11998;SDS011;40817;51.520;9.954;2022-09-06T15:09:01;5.00;;;2.30;;
11998;SDS011;40817;51.520;9.954;2022-09-06T15:11:30;2.40;;;1.92;;
11998;SDS011;40817;51.520;9.954;2022-09-06T15:14:02;4.82;;;2.10;;
11998;SDS011;40817;51.520;9.954;2022-09-06T15:16:33;2.92;;;2.30;;
11998;SDS011;40817;51.520;9.954;2022-09-06T15:19:01;3.30;;;2.25;;
11998;SDS011;40817;51.520;9.954;2022-09-06T15:21:30;6.07;;;2.20;;
11998;SDS011;40817;51.520;9.954;2022-09-06T15:23:58;3.95;;;2.30;;
11998;SDS011;40817;51.520;9.954;2022-09-06T15:26:27;4.22;;;2.20;;
11998;SDS011;40817;51.520;9.954;2022-09-06T15:28:56;3.72;;;2.45;;
11998;SDS011;40817;51.520;9.954;2022-09-06T15:31:24;3.47;;;2.55;;
11998;SDS011;40817;51.520;9.954;2022-09-06T15:33:52;4.22;;;2.10;;
11998;SDS011;40817;51.520;9.954;2022-09-06T15:36:20;2.58;;;2.30;;
11998;SDS011;40817;51.520;9.954;2022-09-06T15:38:48;4.78;;;2.65;;
11998;SDS011;40817;51.520;9.954;2022-09-06T15:41:19;2.70;;;2.33;;
11998;SDS011;40817;51.520;9.954;2022-09-06T15:43:51;3.47;;;2.17;;
11998;SDS011;40817;51.520;9.954;2022-09-06T15:46:40;6.35;;;3.25;;